createdAt,value
2019-01-20T00:01:45.324Z,46.77
2019-01-20T00:04:16.388Z,49.23
2019-01-20T00:06:47.540Z,54.77
2019-01-20T00:09:19.908Z,49.77
2019-01-20T00:11:55.399Z,49.37
2019-01-20T00:14:27.808Z,57.23
2019-01-20T00:16:59.817Z,48.60
2019-01-20T00:19:31.941Z,55.03
2019-01-20T00:22:06.929Z,53.28
2019-01-20T00:24:37.700Z,49.27
2019-01-20T00:27:08.481Z,51.25
2019-01-20T00:29:40.124Z,51.10
2019-01-20T00:32:16.666Z,50.20
2019-01-20T00:34:48.284Z,48.70
2019-01-20T00:37:19.046Z,49.63
2019-01-20T00:39:49.506Z,57.20
2019-01-20T00:42:20.769Z,51.13
2019-01-20T00:44:52.342Z,51.48
2019-01-20T00:47:23.284Z,48.67
2019-01-20T00:49:54.710Z,48.70
2019-01-20T00:52:26.526Z,48.10
2019-01-20T00:55:06.398Z,51.10
2019-01-20T00:57:41.177Z,54.10
2019-01-20T01:00:18.105Z,53.93
2019-01-20T01:02:51.250Z,58.98
2019-01-20T01:05:23.417Z,54.23
2019-01-20T01:07:53.980Z,51.02
2019-01-20T01:10:25.543Z,53.90
2019-01-20T01:13:00.632Z,61.77
2019-01-20T01:15:34.836Z,50.73
2019-01-20T01:18:06.273Z,53.28
2019-01-20T01:20:36.791Z,55.53
2019-01-20T01:23:07.302Z,51.42
2019-01-20T01:25:37.870Z,50.27
2019-01-20T01:28:08.464Z,51.73
2019-01-20T01:30:39.041Z,52.70
2019-01-20T01:33:11.365Z,49.90
2019-01-20T01:35:41.924Z,50.80
2019-01-20T01:38:12.533Z,55.55
2019-01-20T01:40:43.800Z,50.90
2019-01-20T01:43:20.006Z,52.25
2019-01-20T01:45:52.217Z,57.50
2019-01-20T01:48:23.712Z,52.50
2019-01-20T01:50:55.240Z,51.40
2019-01-20T01:53:26.407Z,50.83
2019-01-20T01:55:59.829Z,52.93
2019-01-20T01:58:30.424Z,53.90
2019-01-20T02:01:18.969Z,52.13
2019-01-20T02:03:50.451Z,55.90
2019-01-20T02:06:21.757Z,52.20
2019-01-20T02:08:52.469Z,56.77
2019-01-20T02:11:23.454Z,51.48
2019-01-20T02:13:55.467Z,48.23
2019-01-20T02:16:27.960Z,48.60
2019-01-20T02:18:59.322Z,49.73
2019-01-20T02:21:31.146Z,49.90
2019-01-20T02:24:02.140Z,52.98
2019-01-20T02:26:33.439Z,55.03
2019-01-20T02:29:04.678Z,52.17
2019-01-20T02:31:42.209Z,53.10
2019-01-20T02:34:13.060Z,53.17
2019-01-20T02:36:46.976Z,54.35
2019-01-20T02:39:23.829Z,53.90
2019-01-20T02:41:55.490Z,54.15
2019-01-20T02:44:26.289Z,52.43
2019-01-20T02:47:00.156Z,54.40
2019-01-20T02:49:33.356Z,60.57
2019-01-20T02:52:04.384Z,60.30
2019-01-20T02:54:44.578Z,56.33
2019-01-20T02:57:15.398Z,57.43
2019-01-20T02:59:45.901Z,55.88
2019-01-20T03:02:17.530Z,56.02
2019-01-20T03:04:48.352Z,56.95
2019-01-20T03:07:22.457Z,53.13
2019-01-20T03:09:52.954Z,57.33
2019-01-20T03:12:33.388Z,49.53
2019-01-20T03:15:04.553Z,46.27
2019-01-20T03:17:38.521Z,48.43
2019-01-20T03:20:15.438Z,58.65
2019-01-20T03:22:47.130Z,55.47
2019-01-20T03:25:17.842Z,58.75
2019-01-20T03:27:55.341Z,61.63
2019-01-20T03:30:25.794Z,60.50
2019-01-20T03:32:56.534Z,63.67
2019-01-20T03:35:27.084Z,62.47
2019-01-20T03:37:57.581Z,57.77
2019-01-20T03:40:31.669Z,58.60
2019-01-20T03:43:12.053Z,57.05
2019-01-20T03:45:42.868Z,55.10
2019-01-20T03:48:13.403Z,59.85
2019-01-20T03:50:44.057Z,54.03
2019-01-20T03:53:15.103Z,60.12
2019-01-20T03:55:45.629Z,63.30
2019-01-20T03:58:16.098Z,54.03
2019-01-20T04:00:49.765Z,55.85
2019-01-20T04:03:20.304Z,53.40
2019-01-20T04:05:51.328Z,52.70
2019-01-20T04:08:21.873Z,58.47
2019-01-20T04:10:52.357Z,53.53
2019-01-20T04:13:22.816Z,53.00
2019-01-20T04:15:53.277Z,57.93
2019-01-20T04:18:26.798Z,61.50
2019-01-20T04:20:57.275Z,53.40
2019-01-20T04:23:27.996Z,57.10
2019-01-20T04:25:58.464Z,58.07
2019-01-20T04:28:28.961Z,57.80
2019-01-20T04:31:01.255Z,58.13
2019-01-20T04:33:32.048Z,63.02
2019-01-20T04:36:02.894Z,61.23
2019-01-20T04:38:33.357Z,62.27
2019-01-20T04:41:03.800Z,62.53
2019-01-20T04:43:37.513Z,56.58
2019-01-20T04:46:08.460Z,59.07
2019-01-20T04:48:39.341Z,60.40
2019-01-20T04:51:09.984Z,52.90
2019-01-20T04:53:41.528Z,53.83
2019-01-20T04:56:25.382Z,56.47
2019-01-20T04:58:59.964Z,63.00
2019-01-20T05:01:30.538Z,54.90
2019-01-20T05:04:04.556Z,54.33
2019-01-20T05:06:35.326Z,55.30
2019-01-20T05:09:10.749Z,54.15
2019-01-20T05:11:42.138Z,56.43
2019-01-20T05:14:16.782Z,51.42
2019-01-20T05:16:53.876Z,58.60
2019-01-20T05:19:33.998Z,55.43
2019-01-20T05:22:04.429Z,61.73
2019-01-20T05:24:44.644Z,59.63
2019-01-20T05:27:15.117Z,57.73
2019-01-20T05:29:45.606Z,66.42
2019-01-20T05:32:16.111Z,56.83
2019-01-20T05:34:47.405Z,69.17
2019-01-20T05:37:18.399Z,59.48
2019-01-20T05:39:52.004Z,63.17
2019-01-20T05:42:22.726Z,59.43
2019-01-20T05:44:53.186Z,58.68
2019-01-20T05:47:24.555Z,60.38
2019-01-20T05:49:54.978Z,57.13
2019-01-20T05:52:25.454Z,59.07
2019-01-20T05:54:59.364Z,65.92
2019-01-20T05:57:30.156Z,59.38
2019-01-20T06:00:20.581Z,60.33
2019-01-20T06:02:51.214Z,55.70
2019-01-20T06:05:22.121Z,63.35
2019-01-20T06:07:52.820Z,60.73
2019-01-20T06:10:26.790Z,60.10
2019-01-20T06:12:57.725Z,63.73
2019-01-20T06:15:28.541Z,57.93
2019-01-20T06:18:01.992Z,67.47
2019-01-20T06:20:32.471Z,60.00
2019-01-20T06:23:03.013Z,58.75
2019-01-20T06:25:33.528Z,59.73
2019-01-20T06:28:04.021Z,60.60
2019-01-20T06:30:34.546Z,58.65
2019-01-20T06:33:05.986Z,58.10
2019-01-20T06:35:42.404Z,60.23
2019-01-20T06:38:12.892Z,58.70
2019-01-20T06:40:43.642Z,59.20
2019-01-20T06:43:17.832Z,64.40
2019-01-20T06:45:48.763Z,62.17
2019-01-20T06:48:19.587Z,59.40
2019-01-20T06:50:50.354Z,55.12
2019-01-20T06:53:21.072Z,56.20
2019-01-20T06:55:52.044Z,56.00
2019-01-20T06:58:22.536Z,61.23
2019-01-20T07:00:53.029Z,64.75
2019-01-20T07:03:26.488Z,60.67
2019-01-20T07:05:57.077Z,57.50
2019-01-20T07:08:30.945Z,53.07
2019-01-20T07:11:05.289Z,59.93
2019-01-20T07:13:36.261Z,69.43
2019-01-20T07:16:06.905Z,59.73
2019-01-20T07:18:37.744Z,64.83
2019-01-20T07:21:08.473Z,62.50
2019-01-20T07:23:39.197Z,69.67
2019-01-20T07:26:09.757Z,64.22
2019-01-20T07:28:40.275Z,72.20
2019-01-20T07:31:10.804Z,69.80
2019-01-20T07:36:28.744Z,61.30
2019-01-20T07:38:59.280Z,62.83
2019-01-20T07:41:30.125Z,60.25
2019-01-20T07:44:00.744Z,58.80
2019-01-20T07:46:31.552Z,62.60
2019-01-20T07:49:02.166Z,61.27
2019-01-20T07:51:32.644Z,59.67
2019-01-20T07:54:03.109Z,62.47
2019-01-20T07:56:33.597Z,63.70
2019-01-20T07:59:04.209Z,62.30
2019-01-20T08:01:34.702Z,65.83
2019-01-20T08:04:05.203Z,64.67
2019-01-20T08:06:35.695Z,60.57
2019-01-20T08:09:08.170Z,61.30
2019-01-20T08:11:40.691Z,62.20
2019-01-20T08:14:11.761Z,68.70
2019-01-20T08:16:42.275Z,68.35
2019-01-20T08:19:13.518Z,63.78
2019-01-20T08:21:44.426Z,67.30
2019-01-20T08:24:17.846Z,69.10
2019-01-20T08:26:50.140Z,67.50
2019-01-20T08:29:21.113Z,68.15
2019-01-20T08:31:51.641Z,67.00
2019-01-20T08:34:22.309Z,64.45
2019-01-20T08:36:52.967Z,63.57
2019-01-20T08:39:23.853Z,63.63
2019-01-20T08:41:54.591Z,70.47
2019-01-20T08:44:30.049Z,60.17
2019-01-20T08:47:32.732Z,60.17
2019-01-20T08:50:04.480Z,61.25
2019-01-20T08:52:35.044Z,63.00
2019-01-20T08:55:07.056Z,59.07
2019-01-20T08:57:37.660Z,55.95
2019-01-20T09:00:12.609Z,51.83
2019-01-20T09:02:43.528Z,58.50
2019-01-20T09:05:15.242Z,53.90
2019-01-20T09:07:46.014Z,53.27
2019-01-20T09:10:22.848Z,56.70
2019-01-20T09:12:54.693Z,54.93
2019-01-20T09:15:25.185Z,55.20
2019-01-20T09:17:56.403Z,55.78
2019-01-20T09:20:26.904Z,52.57
2019-01-20T09:22:57.503Z,53.48
2019-01-20T09:25:27.989Z,54.13
2019-01-20T09:27:58.899Z,53.10
2019-01-20T09:30:29.501Z,55.38
2019-01-20T09:33:00.352Z,50.33
2019-01-20T09:35:40.085Z,56.00
2019-01-20T09:38:10.757Z,55.57
2019-01-20T09:40:42.115Z,51.25
2019-01-20T09:43:14.426Z,51.90
2019-01-20T09:45:51.990Z,51.57
2019-01-20T09:48:23.435Z,48.05
2019-01-20T09:50:54.000Z,49.53
2019-01-20T09:53:40.298Z,50.92
2019-01-20T09:56:10.840Z,51.00
2019-01-20T09:58:41.785Z,48.70
2019-01-20T10:01:12.521Z,48.25
2019-01-20T10:03:43.059Z,49.55
2019-01-20T10:06:13.762Z,49.23
2019-01-20T10:08:45.069Z,50.83
2019-01-20T10:11:15.683Z,53.17
2019-01-20T10:13:46.405Z,54.20
2019-01-20T10:16:16.928Z,50.90
2019-01-20T10:18:49.719Z,51.93
2019-01-20T10:21:20.377Z,52.67
2019-01-20T10:23:50.868Z,51.03
2019-01-20T10:26:21.385Z,50.52
2019-01-20T10:28:52.265Z,50.03
2019-01-20T10:31:22.817Z,50.97
2019-01-20T10:33:53.393Z,49.00
2019-01-20T10:36:24.029Z,47.27
2019-01-20T10:38:54.591Z,45.95
2019-01-20T10:41:25.138Z,48.35
2019-01-20T10:44:02.015Z,47.03
2019-01-20T10:46:27.921Z,47.90
2019-01-20T10:48:58.405Z,43.30
2019-01-20T10:51:28.865Z,43.30
2019-01-20T10:53:59.355Z,42.10
2019-01-20T10:56:29.856Z,42.27
2019-01-20T10:59:00.389Z,43.33
2019-01-20T11:01:30.984Z,43.20
2019-01-20T11:04:01.476Z,43.15
2019-01-20T11:06:31.960Z,42.83
2019-01-20T11:09:02.461Z,44.63
2019-01-20T11:11:33.975Z,41.58
2019-01-20T11:14:09.423Z,42.27
2019-01-20T11:16:36.845Z,39.80
2019-01-20T11:19:07.663Z,43.03
2019-01-20T11:21:38.201Z,42.67
2019-01-20T11:24:08.708Z,40.78
2019-01-20T11:26:39.327Z,42.90
2019-01-20T11:29:09.805Z,43.15
2019-01-20T11:31:40.336Z,42.40
2019-01-20T11:34:10.925Z,40.50
2019-01-20T11:36:41.437Z,42.03
2019-01-20T11:39:12.979Z,41.77
2019-01-20T11:41:43.461Z,45.55
2019-01-20T11:44:17.150Z,44.73
2019-01-20T11:46:47.726Z,44.80
2019-01-20T11:49:18.331Z,48.17
2019-01-20T11:51:49.281Z,48.20
2019-01-20T11:54:19.785Z,46.02
2019-01-20T11:56:50.734Z,46.90
2019-01-20T11:59:21.361Z,48.03
2019-01-20T12:01:51.962Z,45.05
2019-01-20T12:04:22.629Z,45.17
2019-01-20T12:06:53.140Z,44.53
2019-01-20T12:09:23.901Z,43.40
2019-01-20T12:11:55.981Z,43.20
2019-01-20T12:14:26.761Z,41.15
2019-01-20T12:16:57.317Z,39.90
2019-01-20T12:19:27.830Z,42.10
2019-01-20T12:21:58.287Z,39.30
2019-01-20T12:24:28.761Z,38.10
2019-01-20T12:26:59.282Z,35.37
2019-01-20T12:29:29.864Z,38.33
2019-01-20T12:32:00.318Z,36.93
2019-01-20T12:34:31.950Z,38.27
2019-01-20T12:37:02.731Z,36.93
2019-01-20T12:39:33.224Z,35.50
2019-01-20T12:42:03.722Z,36.03
2019-01-20T12:44:34.221Z,40.90
2019-01-20T12:47:04.755Z,37.37
2019-01-20T12:49:35.485Z,36.33
2019-01-20T12:52:05.968Z,39.00
2019-01-20T12:54:36.545Z,37.80
2019-01-20T12:57:07.001Z,38.80
2019-01-20T12:59:38.197Z,40.03
2019-01-20T13:02:08.938Z,39.93
2019-01-20T13:04:39.435Z,37.37
2019-01-20T13:07:10.294Z,37.13
2019-01-20T13:09:40.808Z,35.97
2019-01-20T13:12:11.428Z,38.07
2019-01-20T13:14:41.969Z,36.93
2019-01-20T13:17:12.509Z,38.20
2019-01-20T13:19:43.329Z,38.23
2019-01-20T13:22:13.806Z,36.50
2019-01-20T13:24:44.900Z,36.80
2019-01-20T13:27:15.444Z,38.47
2019-01-20T13:29:46.959Z,37.43
2019-01-20T13:32:17.428Z,36.50
2019-01-20T13:34:48.025Z,37.47
2019-01-20T13:37:18.537Z,39.80
2019-01-20T13:39:49.014Z,38.53
2019-01-20T13:42:19.557Z,36.53
2019-01-20T13:44:50.132Z,38.07
2019-01-20T13:47:20.619Z,38.40
2019-01-20T13:49:51.159Z,38.03
2019-01-20T13:52:21.633Z,44.17
2019-01-20T13:54:52.767Z,39.83
2019-01-20T13:57:23.606Z,41.07
2019-01-20T13:59:54.385Z,39.47
2019-01-20T14:02:24.890Z,39.03
2019-01-20T14:04:55.791Z,40.90
2019-01-20T14:07:26.354Z,41.53
2019-01-20T14:09:57.055Z,39.13
2019-01-20T14:12:28.634Z,38.53
2019-01-20T14:14:59.113Z,41.03
2019-01-20T14:17:29.676Z,41.67
2019-01-20T14:20:00.245Z,38.60
2019-01-20T14:22:30.999Z,40.50
2019-01-20T14:25:01.820Z,33.97
2019-01-20T14:27:32.307Z,44.83
2019-01-20T14:30:03.209Z,46.13
2019-01-20T14:32:33.707Z,36.00
2019-01-20T14:35:05.276Z,38.00
2019-01-20T14:37:35.736Z,36.67
2019-01-20T14:40:07.288Z,40.97
2019-01-20T14:42:37.778Z,40.73
2019-01-20T14:45:08.896Z,36.93
2019-01-20T14:47:39.430Z,37.97
2019-01-20T14:50:13.272Z,41.00
2019-01-20T14:52:43.754Z,40.27
2019-01-20T14:55:14.522Z,43.23
2019-01-20T14:57:44.960Z,43.83
2019-01-20T15:00:28.037Z,35.63
2019-01-20T15:02:58.583Z,42.57
2019-01-20T15:05:29.103Z,40.40
2019-01-20T15:07:59.976Z,43.53
2019-01-20T15:10:31.376Z,41.33
2019-01-20T15:13:01.886Z,45.70
2019-01-20T15:15:37.695Z,40.03
2019-01-20T15:18:08.726Z,42.80
2019-01-20T15:20:40.254Z,42.23
2019-01-20T15:23:10.748Z,41.80
2019-01-20T15:25:41.404Z,39.47
2019-01-20T15:28:12.219Z,43.20
2019-01-20T15:30:43.069Z,42.60
2019-01-20T15:33:13.547Z,45.23
2019-01-20T15:35:44.290Z,44.50
2019-01-20T15:38:14.837Z,43.60
2019-01-20T15:40:45.621Z,46.67
2019-01-20T15:43:16.084Z,44.17
2019-01-20T15:45:46.737Z,43.13
2019-01-20T15:48:17.261Z,40.87
2019-01-20T15:50:47.866Z,40.90
2019-01-20T15:53:18.564Z,42.23
2019-01-20T15:55:49.050Z,44.10
2019-01-20T15:58:20.048Z,42.30
2019-01-20T16:00:50.528Z,43.20
2019-01-20T16:03:21.128Z,46.33
2019-01-20T16:05:51.610Z,41.80
2019-01-20T16:08:22.098Z,42.30
2019-01-20T16:10:53.237Z,45.00
2019-01-20T16:13:24.231Z,43.13
2019-01-20T16:15:55.444Z,42.47
2019-01-20T16:18:26.231Z,43.37
2019-01-20T16:20:56.766Z,47.37
2019-01-20T16:23:27.871Z,40.97
2019-01-20T16:25:58.432Z,46.87
2019-01-20T16:28:28.919Z,39.80
2019-01-20T16:30:59.851Z,41.80
2019-01-20T16:33:30.414Z,48.92
2019-01-20T16:36:00.887Z,44.27
2019-01-20T16:38:32.526Z,44.80
2019-01-20T16:41:03.444Z,46.17
2019-01-20T16:43:33.992Z,44.23
2019-01-20T16:46:04.457Z,45.93
2019-01-20T16:48:35.169Z,41.63
2019-01-20T16:51:05.656Z,45.53
2019-01-20T16:53:36.165Z,46.10
2019-01-20T16:56:06.764Z,43.60
2019-01-20T16:58:37.229Z,45.53
2019-01-20T17:01:07.825Z,43.50
2019-01-20T17:03:38.357Z,41.60
2019-01-20T17:06:08.882Z,46.00
2019-01-20T17:08:39.682Z,46.17
2019-01-20T17:11:10.281Z,43.73
2019-01-20T17:13:41.313Z,46.07
2019-01-20T17:16:11.789Z,45.73
2019-01-20T17:18:42.377Z,46.50
2019-01-20T17:21:13.844Z,45.57
2019-01-20T17:23:44.399Z,47.93
2019-01-20T17:26:14.888Z,43.37
2019-01-20T17:28:45.647Z,45.13
2019-01-20T17:31:16.140Z,45.87
2019-01-20T17:33:46.894Z,49.43
2019-01-20T17:36:17.368Z,46.90
2019-01-20T17:38:47.905Z,48.10
2019-01-20T17:41:18.489Z,50.30
2019-01-20T17:43:49.029Z,50.73
2019-01-20T17:46:19.536Z,50.33
2019-01-20T17:48:50.027Z,51.93
2019-01-20T17:51:20.553Z,52.10
2019-01-20T17:53:52.161Z,46.87
2019-01-20T17:56:22.717Z,48.52
2019-01-20T17:58:53.263Z,49.07
2019-01-20T18:01:23.760Z,52.27
2019-01-20T18:03:54.288Z,47.87
2019-01-20T18:06:24.789Z,51.93
2019-01-20T18:08:55.389Z,50.37
2019-01-20T18:11:25.909Z,52.07
2019-01-20T18:13:56.487Z,53.07
2019-01-20T18:16:27.025Z,58.00
2019-01-20T18:18:57.567Z,60.20
2019-01-20T18:21:28.230Z,56.67
2019-01-20T18:23:58.735Z,55.23
2019-01-20T18:28:58.746Z,58.70
2019-01-20T18:31:29.401Z,52.60
2019-01-20T18:33:59.917Z,48.70
2019-01-20T18:36:30.391Z,51.60
2019-01-20T18:39:00.956Z,52.03
2019-01-20T18:41:32.476Z,50.80
2019-01-20T18:44:03.015Z,53.70
2019-01-20T18:46:39.608Z,60.73
2019-01-20T18:49:10.108Z,57.37
2019-01-20T18:51:40.578Z,53.43
2019-01-20T18:54:11.068Z,53.87
2019-01-20T18:56:41.636Z,55.47
2019-01-20T18:59:12.149Z,48.83
2019-01-20T19:01:42.591Z,52.33
2019-01-20T19:04:13.170Z,52.47
2019-01-20T19:06:43.612Z,54.07
2019-01-20T19:09:14.094Z,48.20
2019-01-20T19:11:44.560Z,51.07
2019-01-20T19:14:15.088Z,46.07
2019-01-20T19:16:45.569Z,49.83
2019-01-20T19:19:16.107Z,48.70
2019-01-20T19:21:46.808Z,48.17
2019-01-20T19:24:17.311Z,50.77
2019-01-20T19:26:47.804Z,48.17
2019-01-20T19:29:18.308Z,49.00
2019-01-20T19:31:48.861Z,49.90
2019-01-20T19:34:19.966Z,45.93
2019-01-20T19:36:50.650Z,47.20
2019-01-20T19:39:21.329Z,47.63
2019-01-20T19:41:52.009Z,50.73
2019-01-20T19:44:22.649Z,48.38
2019-01-20T19:46:53.371Z,47.17
2019-01-20T19:49:24.009Z,50.03
2019-01-20T19:51:55.095Z,44.37
2019-01-20T19:54:33.884Z,46.10
2019-01-20T19:57:04.529Z,44.07
2019-01-20T19:59:35.191Z,46.13
2019-01-20T20:02:06.015Z,42.33
2019-01-20T20:04:37.574Z,45.33
2019-01-20T20:07:09.000Z,44.30
2019-01-20T20:09:40.669Z,43.73
2019-01-20T20:12:11.286Z,44.57
2019-01-20T20:14:43.289Z,47.30
2019-01-20T20:17:14.266Z,44.20
2019-01-20T20:19:44.954Z,45.17
2019-01-20T20:22:15.576Z,43.70
2019-01-20T20:24:46.537Z,44.67
2019-01-20T20:27:17.096Z,46.50
2019-01-20T20:29:47.566Z,41.67
2019-01-20T20:32:18.584Z,45.13
2019-01-20T20:34:53.664Z,43.50
2019-01-20T20:37:21.396Z,45.47
2019-01-20T20:39:52.045Z,44.77
2019-01-20T20:42:22.552Z,44.37
2019-01-20T20:44:53.149Z,44.80
2019-01-20T20:47:23.605Z,47.27
2019-01-20T20:49:54.142Z,40.03
2019-01-20T20:52:24.646Z,44.03
2019-01-20T20:54:55.166Z,40.80
2019-01-20T20:57:25.695Z,42.87
2019-01-20T20:59:56.205Z,46.57
2019-01-20T21:02:26.757Z,44.63
2019-01-20T21:04:57.412Z,45.33
2019-01-20T21:07:27.987Z,47.17
2019-01-20T21:09:58.756Z,42.40
2019-01-20T21:12:29.536Z,45.43
2019-01-20T21:15:03.366Z,45.80
2019-01-20T21:17:32.580Z,44.33
2019-01-20T21:20:03.043Z,44.93
2019-01-20T21:22:33.527Z,49.90
2019-01-20T21:25:06.101Z,48.40
2019-01-20T21:27:36.639Z,48.20
2019-01-20T21:30:11.003Z,47.93
2019-01-20T21:32:41.502Z,48.17
2019-01-20T21:35:12.691Z,48.83
2019-01-20T21:37:43.212Z,46.37
2019-01-20T21:40:14.396Z,48.53
2019-01-20T21:42:45.483Z,50.63
2019-01-20T21:45:16.676Z,49.17
2019-01-20T21:47:47.268Z,51.07
2019-01-20T21:50:23.177Z,53.67
2019-01-20T21:52:54.800Z,57.37
2019-01-20T21:55:25.284Z,51.70
2019-01-20T21:57:55.883Z,50.53
2019-01-20T22:00:28.076Z,53.43
2019-01-20T22:02:58.895Z,50.40
2019-01-20T22:05:29.730Z,52.90
2019-01-20T22:08:00.220Z,51.60
2019-01-20T22:10:30.784Z,56.83
2019-01-20T22:13:01.557Z,53.10
2019-01-20T22:15:32.171Z,53.57
2019-01-20T22:18:03.221Z,50.40
2019-01-20T22:20:33.851Z,51.07
2019-01-20T22:23:04.344Z,53.50
2019-01-20T22:25:35.140Z,53.37
2019-01-20T22:28:05.694Z,58.23
2019-01-20T22:30:36.193Z,55.23
2019-01-20T22:33:06.682Z,51.77
2019-01-20T22:35:37.186Z,51.63
2019-01-20T22:38:07.992Z,55.77
2019-01-20T22:40:38.481Z,49.47
2019-01-20T22:43:08.965Z,57.57
2019-01-20T22:45:39.701Z,53.37
2019-01-20T22:48:10.166Z,50.47
2019-01-20T22:50:40.934Z,54.70
2019-01-20T22:53:11.447Z,54.97
2019-01-20T22:55:42.056Z,53.97
2019-01-20T22:58:12.604Z,55.13
2019-01-20T23:00:56.692Z,55.17
2019-01-20T23:03:29.428Z,50.37
2019-01-20T23:05:59.902Z,51.63
2019-01-20T23:08:30.436Z,52.80
2019-01-20T23:11:01.035Z,51.90
2019-01-20T23:13:31.709Z,54.90
2019-01-20T23:16:02.197Z,52.13
2019-01-20T23:18:32.662Z,53.90
2019-01-20T23:21:03.258Z,52.83
2019-01-20T23:23:33.752Z,52.43
2019-01-20T23:26:04.685Z,49.07
2019-01-20T23:28:35.531Z,52.33
2019-01-20T23:31:06.053Z,53.00
2019-01-20T23:33:36.636Z,52.00
2019-01-20T23:36:08.339Z,53.00
2019-01-20T23:38:38.976Z,54.63
2019-01-20T23:41:09.458Z,58.30
2019-01-20T23:43:39.997Z,58.63
2019-01-20T23:46:10.906Z,56.90
2019-01-20T23:48:41.372Z,51.70
2019-01-20T23:51:11.993Z,54.07
2019-01-20T23:53:42.572Z,55.67
2019-01-20T23:56:13.178Z,57.40
2019-01-20T23:58:48.279Z,55.70
